Time;durP1;ratioP1;P1;durP2;ratioP2;P2;SDS_P1;SDS_P2;PMS_P1;PMS_P2;Temp;Humidity;BMP_temperature;BMP_pressure;BME280_temperature;BME280_humidity;BME280_pressure;Samples;Min_cycle;Max_cycle;Signal;HPM_P1;HPM_P2
2022/01/06 00:01:57;;;;;;;7.60;2.00;;;19.60;54.10;;;;;;4496415;31;20290;-67
2022/01/06 00:04:22;;;;;;;5.68;1.85;;;19.60;54.10;;;;;;4495209;31;20140;-67
2022/01/06 00:06:49;;;;;;;6.70;2.03;;;19.50;54.00;;;;;;4496415;31;20554;-67
2022/01/06 00:09:17;;;;;;;8.68;2.00;;;19.50;54.10;;;;;;4495272;31;20120;-67
2022/01/06 00:11:44;;;;;;;7.88;2.10;;;19.50;54.10;;;;;;4482406;31;20278;-67
2022/01/06 00:14:38;;;;;;;10.07;2.47;;;19.50;54.10;;;;;;4493192;31;20156;-67
2022/01/06 00:25:18;;;;;;;8.57;1.95;;;19.50;54.30;;;;;;4497323;31;20521;-67
2022/01/06 00:27:43;;;;;;;7.18;1.77;;;19.50;54.30;;;;;;4497948;31;20120;-67
2022/01/06 00:30:10;;;;;;;5.07;1.70;;;19.40;54.20;;;;;;4496153;31;20293;-67
2022/01/06 00:32:35;;;;;;;5.53;1.63;;;19.40;54.30;;;;;;4497479;31;20250;-67
2022/01/06 00:35:02;;;;;;;6.68;1.70;;;19.40;54.20;;;;;;4483095;32;20187;-67
2022/01/06 00:37:28;;;;;;;6.22;1.85;;;19.40;54.30;;;;;;4483526;32;20121;-67
2022/01/06 00:39:53;;;;;;;6.32;1.73;;;19.40;54.20;;;;;;4483361;32;20139;-67
2022/01/06 00:42:19;;;;;;;6.00;1.83;;;19.30;54.30;;;;;;4483187;32;20217;-68
2022/01/06 00:44:45;;;;;;;6.43;1.70;;;19.30;55.20;;;;;;4497745;32;20129;-67
2022/01/06 00:47:11;;;;;;;5.30;1.60;;;19.30;54.30;;;;;;4496929;32;20136;-67
2022/01/06 00:49:37;;;;;;;7.68;1.67;;;19.30;54.40;;;;;;4497532;32;20138;-67
2022/01/06 00:52:03;;;;;;;5.40;1.52;;;19.30;54.30;;;;;;4496973;32;20226;-67
2022/01/06 00:54:32;;;;;;;7.40;1.70;;;19.30;54.40;;;;;;4497336;32;20254;-67
2022/01/06 00:56:57;;;;;;;4.82;1.70;;;19.30;54.40;;;;;;4497233;32;20132;-67
2022/01/06 00:59:23;;;;;;;5.28;1.48;;;19.20;54.40;;;;;;4497001;32;20116;-67
2022/01/06 01:01:49;;;;;;;5.28;1.40;;;19.20;54.50;;;;;;4497789;32;20117;-67
2022/01/06 01:04:15;;;;;;;4.47;1.40;;;19.20;54.50;;;;;;4496967;32;20121;-67
2022/01/06 01:06:41;;;;;;;6.80;1.58;;;19.20;54.50;;;;;;4497240;32;20128;-67
2022/01/06 01:09:07;;;;;;;6.05;1.60;;;19.20;54.50;;;;;;4495822;32;20143;-67
2022/01/06 01:11:32;;;;;;;5.47;1.70;;;19.20;54.50;;;;;;4497139;32;20170;-68
2022/01/06 01:14:16;;;;;;;4.88;1.50;;;19.20;55.40;;;;;;4498689;31;20518;-67
2022/01/06 01:16:50;;;;;;;5.18;1.40;;;19.20;54.50;;;;;;4500413;31;20176;-67
2022/01/06 01:19:15;;;;;;;6.15;1.95;;;19.20;54.50;;;;;;4500414;31;20156;-67
2022/01/06 01:21:41;;;;;;;4.63;1.65;;;19.10;54.50;;;;;;4500170;31;20141;-67
2022/01/06 01:24:07;;;;;;;4.88;1.67;;;19.10;54.50;;;;;;4499664;31;20129;-67
2022/01/06 01:26:33;;;;;;;4.43;1.58;;;19.10;54.50;;;;;;4500309;31;20124;-67
2022/01/06 01:28:59;;;;;;;6.53;1.70;;;19.10;54.50;;;;;;4499823;31;20116;-67
2022/01/06 01:31:27;;;;;;;3.55;1.40;;;19.10;54.60;;;;;;4500127;31;20139;-67
2022/01/06 01:33:57;;;;;;;6.55;1.65;;;19.10;54.50;;;;;;4485631;31;20125;-67
2022/01/06 01:36:23;;;;;;;3.88;1.20;;;19.00;54.50;;;;;;4499947;31;20139;-68
2022/01/06 01:38:49;;;;;;;4.85;1.40;;;19.00;54.50;;;;;;4485823;31;20192;-67
2022/01/06 01:41:15;;;;;;;5.82;1.30;;;19.00;54.50;;;;;;4499635;31;20136;-67
2022/01/06 01:43:42;;;;;;;5.22;1.38;;;19.00;54.50;;;;;;4499875;31;20128;-67
2022/01/06 01:46:11;;;;;;;5.55;1.30;;;19.00;54.50;;;;;;4499582;31;20262;-67
2022/01/06 01:48:42;;;;;;;4.15;1.23;;;19.00;54.50;;;;;;4500148;31;20135;-67
2022/01/06 01:51:08;;;;;;;3.92;1.40;;;18.90;54.40;;;;;;4499232;31;20295;-67
2022/01/06 01:53:36;;;;;;;5.22;1.10;;;18.90;54.40;;;;;;4499888;31;20145;-67
2022/01/06 01:56:07;;;;;;;5.45;1.35;;;19.00;54.50;;;;;;4499394;31;20555;-67
2022/01/06 01:58:34;;;;;;;4.32;1.20;;;18.90;54.50;;;;;;4499623;31;20140;-67
2022/01/06 02:01:01;;;;;;;7.97;1.60;;;18.90;54.50;;;;;;4498554;31;20133;-67
2022/01/06 02:03:26;;;;;;;3.95;1.35;;;18.90;54.50;;;;;;4499179;31;20666;-67
2022/01/06 02:05:52;;;;;;;4.38;1.33;;;18.90;54.50;;;;;;4485798;31;20274;-67
2022/01/06 02:08:18;;;;;;;5.47;1.48;;;18.90;54.50;;;;;;4499318;31;20322;-67
2022/01/06 02:10:44;;;;;;;4.32;1.10;;;18.90;54.60;;;;;;4499805;31;20117;-67
2022/01/06 02:13:10;;;;;;;4.95;1.25;;;18.90;54.50;;;;;;4499309;31;20104;-67
2022/01/06 02:15:35;;;;;;;3.75;1.10;;;18.90;54.50;;;;;;4485299;31;20116;-67
2022/01/06 02:18:01;;;;;;;4.70;1.13;;;18.90;54.60;;;;;;4499504;31;20108;-67
2022/01/06 02:20:28;;;;;;;4.13;1.10;;;18.90;54.60;;;;;;4485043;31;20136;-67
2022/01/06 02:22:54;;;;;;;4.93;1.30;;;18.90;54.60;;;;;;4485552;31;20129;-67
2022/01/06 02:25:26;;;;;;;4.82;1.30;;;18.90;54.60;;;;;;4498579;31;20139;-67
2022/01/06 02:27:54;;;;;;;3.72;1.35;;;18.80;54.60;;;;;;4499525;31;20180;-67
2022/01/06 02:30:22;;;;;;;4.93;1.20;;;18.80;54.60;;;;;;4499027;31;20143;-67
2022/01/06 02:32:48;;;;;;;4.85;1.50;;;18.80;54.60;;;;;;4484893;31;20814;-67
2022/01/06 02:35:19;;;;;;;4.07;1.05;;;18.80;54.60;;;;;;4498476;31;20497;-66
2022/01/06 02:37:46;;;;;;;4.20;1.38;;;18.80;54.60;;;;;;4499044;31;20148;-67
2022/01/06 02:40:17;;;;;;;3.15;1.30;;;18.80;55.60;;;;;;4499324;31;20140;-67
2022/01/06 02:42:49;;;;;;;3.05;1.10;;;18.80;54.60;;;;;;4498860;31;20133;-67
2022/01/06 02:45:16;;;;;;;5.18;1.27;;;18.70;54.60;;;;;;4499108;31;20125;-67
2022/01/06 02:47:43;;;;;;;4.43;1.35;;;18.70;54.60;;;;;;4498829;31;20147;-67
2022/01/06 02:50:10;;;;;;;3.10;0.90;;;18.70;54.60;;;;;;4484768;31;20186;-67
2022/01/06 02:52:36;;;;;;;4.50;1.40;;;18.70;55.60;;;;;;4499011;31;20137;-67
2022/01/06 02:55:06;;;;;;;5.00;1.30;;;18.70;54.70;;;;;;4498674;31;20124;-67
2022/01/06 02:57:32;;;;;;;5.18;1.30;;;18.70;54.70;;;;;;4497911;31;20266;-67
2022/01/06 02:59:58;;;;;;;3.47;0.90;;;18.70;54.70;;;;;;4484356;31;20133;-67
2022/01/06 03:02:24;;;;;;;4.80;1.20;;;18.70;54.70;;;;;;4497564;31;20117;-68
2022/01/06 03:04:50;;;;;;;2.88;1.00;;;18.70;54.70;;;;;;4498447;31;20201;-67
2022/01/06 03:07:16;;;;;;;4.70;1.17;;;18.60;54.60;;;;;;4484331;31;20262;-67
2022/01/06 03:09:43;;;;;;;3.85;1.15;;;18.60;54.70;;;;;;4497526;31;20121;-67
2022/01/06 03:12:24;;;;;;;2.65;1.30;;;18.60;54.70;;;;;;4498285;31;20129;-67
2022/01/06 03:14:50;;;;;;;4.38;1.33;;;18.60;54.70;;;;;;4497725;31;20112;-67
2022/01/06 03:17:17;;;;;;;3.83;1.00;;;18.60;54.80;;;;;;4498044;31;20139;-67
2022/01/06 03:19:43;;;;;;;3.65;1.35;;;18.60;54.80;;;;;;4484199;31;20184;-67
2022/01/06 03:22:09;;;;;;;2.38;1.10;;;18.60;54.80;;;;;;4498295;31;20245;-67
2022/01/06 03:24:35;;;;;;;2.80;0.95;;;18.60;54.80;;;;;;4498090;31;20152;-67
2022/01/06 03:27:01;;;;;;;4.47;1.00;;;18.60;54.80;;;;;;4498591;31;20117;-67
2022/01/06 03:29:26;;;;;;;4.63;1.35;;;18.60;54.80;;;;;;4498011;31;20120;-66
2022/01/06 03:31:53;;;;;;;4.53;1.20;;;18.60;54.80;;;;;;4498479;31;20113;-67
2022/01/06 03:34:19;;;;;;;3.75;0.90;;;18.60;54.80;;;;;;4497634;31;20154;-67
2022/01/06 03:36:44;;;;;;;3.92;1.17;;;18.50;54.80;;;;;;4497502;31;20136;-67
2022/01/06 03:39:12;;;;;;;3.35;0.90;;;18.50;54.80;;;;;;4483921;31;20225;-67
2022/01/06 03:41:38;;;;;;;2.78;0.98;;;18.50;54.80;;;;;;4497161;31;20157;-67
2022/01/06 03:44:04;;;;;;;4.00;1.30;;;18.50;54.90;;;;;;4498472;31;20206;-67
2022/01/06 03:46:30;;;;;;;3.10;1.13;;;18.50;54.90;;;;;;4498216;31;20136;-67
2022/01/06 03:48:56;;;;;;;4.38;1.20;;;18.50;54.90;;;;;;4484232;31;20132;-67
2022/01/06 03:51:23;;;;;;;3.67;1.15;;;18.50;54.90;;;;;;4483435;31;20295;-67
2022/01/06 03:53:50;;;;;;;4.43;1.27;;;18.50;54.90;;;;;;4498172;31;20121;-67
2022/01/06 03:56:17;;;;;;;4.47;1.02;;;18.40;54.80;;;;;;4497870;31;20492;-67
2022/01/06 03:58:44;;;;;;;5.00;1.08;;;18.40;54.90;;;;;;4497507;31;20613;-67
2022/01/06 04:01:11;;;;;;;4.28;1.08;;;18.40;54.90;;;;;;4498102;31;20132;-67
2022/01/06 04:03:37;;;;;;;5.10;1.10;;;18.40;54.90;;;;;;4497639;31;20152;-67
2022/01/06 04:06:03;;;;;;;3.95;1.02;;;18.40;54.90;;;;;;4483262;31;20163;-67
2022/01/06 04:08:29;;;;;;;3.67;0.85;;;18.40;54.90;;;;;;4496701;31;20147;-67
2022/01/06 04:10:54;;;;;;;4.85;1.40;;;18.40;55.00;;;;;;4496602;31;20298;-67
2022/01/06 04:13:20;;;;;;;4.22;1.15;;;18.40;55.00;;;;;;4483479;31;20117;-67
2022/01/06 04:15:47;;;;;;;4.82;1.42;;;18.40;55.00;;;;;;4497475;31;20264;-66
2022/01/06 04:18:13;;;;;;;3.45;0.93;;;18.40;55.00;;;;;;4497606;31;20274;-67
2022/01/06 04:20:39;;;;;;;2.97;1.15;;;18.40;55.00;;;;;;4482905;31;20185;-67
2022/01/06 04:23:05;;;;;;;4.90;1.40;;;18.30;54.90;;;;;;4484231;31;20168;-67
2022/01/06 04:25:30;;;;;;;3.50;1.05;;;18.30;55.00;;;;;;4497183;31;20117;-67
2022/01/06 04:27:56;;;;;;;3.60;1.05;;;18.30;55.00;;;;;;4483541;31;20132;-67
2022/01/06 04:30:22;;;;;;;2.95;0.77;;;18.30;55.00;;;;;;4497459;31;20131;-67
2022/01/06 04:32:48;;;;;;;3.40;1.05;;;18.30;55.10;;;;;;4497468;31;20140;-67
2022/01/06 04:35:14;;;;;;;3.63;1.02;;;18.30;55.10;;;;;;4483343;31;20609;-66
2022/01/06 04:37:40;;;;;;;3.78;1.27;;;18.30;55.10;;;;;;4497238;32;20116;-67
2022/01/06 04:40:07;;;;;;;3.67;1.30;;;18.30;55.10;;;;;;4497786;32;20138;-67
2022/01/06 04:42:33;;;;;;;4.45;1.20;;;18.30;55.10;;;;;;4497121;32;20136;-67
2022/01/06 04:44:59;;;;;;;4.55;1.13;;;18.30;55.10;;;;;;4497746;32;20132;-67
2022/01/06 04:47:25;;;;;;;3.75;1.13;;;18.30;55.10;;;;;;4498274;31;20138;-67
2022/01/06 04:49:51;;;;;;;3.30;1.05;;;18.30;55.10;;;;;;4500458;31;20131;-67
2022/01/06 04:52:17;;;;;;;3.85;1.00;;;18.20;55.10;;;;;;4500630;31;20143;-67
2022/01/06 04:54:43;;;;;;;3.38;1.20;;;18.20;55.10;;;;;;4486021;31;20117;-67
2022/01/06 04:57:09;;;;;;;4.53;1.33;;;18.20;55.10;;;;;;4500719;31;20116;-67
2022/01/06 04:59:36;;;;;;;3.10;0.90;;;18.20;55.10;;;;;;4500124;31;20133;-67
2022/01/06 05:02:02;;;;;;;5.13;1.52;;;18.20;55.20;;;;;;4500714;31;20128;-67
2022/01/06 05:04:28;;;;;;;4.50;1.15;;;18.20;55.30;;;;;;4500234;31;20231;-67
2022/01/06 05:06:54;;;;;;;3.83;1.00;;;18.10;55.10;;;;;;4500347;31;20545;-67
2022/01/06 05:09:20;;;;;;;3.60;1.23;;;18.10;55.20;;;;;;4500516;31;20140;-67
2022/01/06 05:11:46;;;;;;;3.47;1.05;;;18.10;55.20;;;;;;4485987;31;20171;-67
2022/01/06 05:14:12;;;;;;;3.65;1.10;;;18.10;55.20;;;;;;4500561;31;20370;-66
2022/01/06 05:16:38;;;;;;;3.95;1.13;;;18.10;55.20;;;;;;4485689;31;20140;-67
2022/01/06 05:19:03;;;;;;;3.17;0.85;;;18.10;55.20;;;;;;4500464;31;20128;-67
2022/01/06 05:21:31;;;;;;;3.35;1.00;;;18.10;55.20;;;;;;4500143;31;20187;-67
2022/01/06 05:23:57;;;;;;;2.95;0.88;;;18.10;55.30;;;;;;4500337;31;20573;-67
2022/01/06 05:26:24;;;;;;;3.42;1.00;;;18.10;55.20;;;;;;4499996;31;20112;-66
2022/01/06 05:28:50;;;;;;;4.47;1.25;;;18.10;55.30;;;;;;4498749;31;20136;-67
2022/01/06 05:31:16;;;;;;;2.85;0.98;;;18.10;55.30;;;;;;4500287;31;20478;-67
2022/01/06 05:33:42;;;;;;;3.03;1.10;;;18.10;55.20;;;;;;4499727;31;20250;-67
2022/01/06 05:36:08;;;;;;;2.90;0.98;;;18.00;55.20;;;;;;4470433;32;20183;-67
2022/01/06 05:38:34;;;;;;;3.78;1.08;;;18.00;55.20;;;;;;4483940;32;20133;-67
2022/01/06 05:41:00;;;;;;;2.55;0.80;;;18.00;55.30;;;;;;4484504;32;20275;-68
2022/01/06 05:43:27;;;;;;;4.45;0.90;;;18.00;55.20;;;;;;4482933;32;20145;-67
2022/01/06 05:45:55;;;;;;;4.10;1.17;;;18.00;55.30;;;;;;4483855;32;20137;-67
2022/01/06 05:48:22;;;;;;;5.25;1.30;;;18.00;55.30;;;;;;4496302;31;20142;-67
2022/01/06 05:50:48;;;;;;;3.08;1.13;;;18.00;55.30;;;;;;4483457;32;20137;-67
2022/01/06 05:53:16;;;;;;;2.25;0.60;;;17.90;55.30;;;;;;4470240;32;20239;-67
2022/01/06 05:55:42;;;;;;;3.17;0.98;;;18.00;55.30;;;;;;4483570;32;20275;-67
2022/01/06 05:58:07;;;;;;;2.53;1.13;;;17.90;55.30;;;;;;4483934;32;20150;-67
2022/01/06 06:00:34;;;;;;;2.78;0.77;;;17.90;55.30;;;;;;4483353;32;20125;-66
2022/01/06 06:03:00;;;;;;;2.50;0.95;;;17.90;55.30;;;;;;4483572;32;20251;-67
2022/01/06 06:05:26;;;;;;;2.88;1.10;;;17.90;55.40;;;;;;4483876;32;20141;-67
2022/01/06 06:07:52;;;;;;;3.10;0.60;;;17.90;55.40;;;;;;4468768;32;20125;-67
2022/01/06 06:10:18;;;;;;;3.03;0.98;;;17.90;55.40;;;;;;4482468;32;20141;-67
2022/01/06 06:12:44;;;;;;;3.88;1.20;;;17.90;55.40;;;;;;4482540;32;20160;-67
2022/01/06 06:15:10;;;;;;;2.63;0.80;;;17.90;55.40;;;;;;4483217;32;20183;-67
2022/01/06 06:17:36;;;;;;;3.33;0.98;;;17.90;55.40;;;;;;4483062;32;20195;-67
2022/01/06 06:20:03;;;;;;;3.72;1.02;;;17.90;55.40;;;;;;4481649;32;20133;-67
2022/01/06 06:22:29;;;;;;;2.83;0.80;;;17.90;55.50;;;;;;4480015;32;20241;-67
2022/01/06 06:24:55;;;;;;;2.28;0.70;;;17.80;55.40;;;;;;4481515;32;20148;-67
2022/01/06 06:27:21;;;;;;;2.42;0.80;;;17.80;55.40;;;;;;4483369;32;20132;-67
2022/01/06 06:29:47;;;;;;;3.42;1.30;;;17.80;55.40;;;;;;4480237;32;20121;-67
2022/01/06 06:32:13;;;;;;;3.67;0.88;;;17.80;55.40;;;;;;4495026;31;20156;-67
2022/01/06 06:34:39;;;;;;;3.72;1.00;;;17.80;55.40;;;;;;4492613;31;20468;-67
2022/01/06 06:37:05;;;;;;;2.92;1.17;;;17.80;55.40;;;;;;4493411;31;20124;-67
2022/01/06 06:39:31;;;;;;;4.38;1.50;;;17.80;55.50;;;;;;4497897;31;20124;-67
2022/01/06 06:41:56;;;;;;;1.70;0.75;;;17.80;55.50;;;;;;4498051;31;20117;-66
2022/01/06 06:44:39;;;;;;;3.65;0.80;;;17.80;55.50;;;;;;4484539;31;20129;-67
2022/01/06 06:47:05;;;;;;;3.63;1.00;;;17.70;55.40;;;;;;4483016;31;20144;-67
2022/01/06 06:49:31;;;;;;;3.70;0.90;;;17.80;55.60;;;;;;4498516;31;20121;-67
2022/01/06 06:51:57;;;;;;;3.38;0.90;;;17.80;55.60;;;;;;4483716;31;20213;-67
2022/01/06 06:54:22;;;;;;;2.70;0.90;;;17.70;55.50;;;;;;4498193;31;20121;-67
2022/01/06 06:56:48;;;;;;;2.33;0.80;;;17.80;55.60;;;;;;4497249;31;20184;-67
2022/01/06 06:59:14;;;;;;;2.70;0.70;;;17.70;55.60;;;;;;4482670;31;20140;-66
2022/01/06 07:01:41;;;;;;;3.60;1.08;;;17.70;55.60;;;;;;4498620;31;20134;-68
2022/01/06 07:04:06;;;;;;;3.67;1.10;;;17.70;55.40;;;;;;4497758;31;20482;-68
2022/01/06 07:06:32;;;;;;;4.68;1.30;;;17.60;54.40;;;;;;4496926;31;20283;-67
2022/01/06 07:08:58;;;;;;;5.15;1.35;;;17.60;53.70;;;;;;4496369;31;20144;-67
2022/01/06 07:11:24;;;;;;;6.60;1.50;;;17.60;53.60;;;;;;4495797;31;20128;-67
2022/01/06 07:13:50;;;;;;;6.10;1.55;;;17.60;54.60;;;;;;4497638;31;20194;-66
2022/01/06 07:16:16;;;;;;;5.78;1.05;;;17.60;53.70;;;;;;4497527;31;20145;-67
2022/01/06 07:18:42;;;;;;;4.90;1.30;;;17.60;53.70;;;;;;4495909;31;20548;-68
2022/01/06 07:21:08;;;;;;;4.90;1.05;;;17.60;53.70;;;;;;4497239;31;20221;-68
2022/01/06 07:23:33;;;;;;;3.53;1.20;;;17.70;53.70;;;;;;4483552;31;20501;-67
2022/01/06 07:25:59;;;;;;;5.28;1.10;;;17.80;53.60;;;;;;4497248;31;20542;-67
2022/01/06 07:28:25;;;;;;;4.50;1.33;;;17.80;53.50;;;;;;4483076;31;20156;-67
2022/01/06 07:30:51;;;;;;;4.35;0.82;;;17.90;53.30;;;;;;4482185;31;20176;-68
2022/01/06 07:33:17;;;;;;;5.35;1.40;;;18.00;53.10;;;;;;4480709;31;20136;-68
2022/01/06 07:35:43;;;;;;;3.78;1.15;;;18.10;52.90;;;;;;4484554;31;20128;-68
2022/01/06 07:38:08;;;;;;;3.92;1.00;;;18.20;52.60;;;;;;4481414;31;20129;-75
2022/01/06 07:40:34;;;;;;;2.47;0.88;;;18.30;52.40;;;;;;4483624;31;20120;-70
2022/01/06 07:43:00;;;;;;;4.78;1.10;;;18.40;52.20;;;;;;4496933;31;20625;-68
2022/01/06 07:45:26;;;;;;;6.28;1.55;;;18.50;52.00;;;;;;4497404;31;20156;-68
2022/01/06 07:48:01;;;;;;;3.00;1.00;;;18.60;51.80;;;;;;4497434;31;20132;-67
2022/01/06 07:50:29;;;;;;;4.72;1.23;;;18.70;52.60;;;;;;4484387;31;20129;-67
2022/01/06 07:52:56;;;;;;;1.90;0.68;;;18.80;51.40;;;;;;4497615;31;20132;-67
2022/01/06 07:55:21;;;;;;;4.25;1.38;;;18.90;51.10;;;;;;4497210;31;20143;-67
2022/01/06 07:57:49;;;;;;;3.95;1.15;;;19.00;50.90;;;;;;4497731;31;20112;-67
2022/01/06 08:00:15;;;;;;;4.35;1.40;;;19.10;50.70;;;;;;4483060;31;20128;-67
2022/01/06 08:02:42;;;;;;;4.55;1.35;;;19.20;50.40;;;;;;4497304;31;20140;-67
2022/01/06 08:05:11;;;;;;;5.03;1.35;;;19.30;50.20;;;;;;4496058;31;20268;-67
2022/01/06 08:07:37;;;;;;;3.15;1.30;;;19.40;50.00;;;;;;4497270;31;20549;-67
2022/01/06 08:10:04;;;;;;;2.55;0.95;;;19.50;49.70;;;;;;4483319;31;20121;-69
2022/01/06 08:12:29;;;;;;;4.65;1.02;;;19.60;49.50;;;;;;4497377;31;20140;-67
2022/01/06 08:14:55;;;;;;;5.30;1.17;;;19.70;49.30;;;;;;4484000;31;20517;-69
2022/01/06 08:17:24;;;;;;;4.82;0.80;;;19.90;49.20;;;;;;4482218;31;20179;-70
2022/01/06 08:19:51;;;;;;;5.82;1.15;;;20.00;49.10;;;;;;4494667;31;20217;-69
2022/01/06 08:22:19;;;;;;;3.40;1.20;;;20.10;48.90;;;;;;4482436;31;20128;-68
2022/01/06 08:24:44;;;;;;;2.90;1.00;;;20.20;48.80;;;;;;4494859;31;20585;-69
2022/01/06 08:27:10;;;;;;;2.13;0.98;;;20.30;48.60;;;;;;4479525;31;20135;-68
2022/01/06 08:29:38;;;;;;;3.97;0.90;;;20.40;48.50;;;;;;4481406;31;20131;-68
2022/01/06 08:32:04;;;;;;;3.63;1.10;;;20.50;49.20;;;;;;4481370;31;20141;-68
2022/01/06 08:34:30;;;;;;;7.10;1.33;;;20.70;48.20;;;;;;4481597;31;20333;-68
2022/01/06 08:36:56;;;;;;;3.90;1.00;;;20.70;48.00;;;;;;4481968;31;20128;-68
2022/01/06 08:39:22;;;;;;;3.70;0.90;;;20.80;47.90;;;;;;4467067;32;20145;-68
2022/01/06 08:41:50;;;;;;;2.15;0.85;;;21.00;47.80;;;;;;4481610;32;20117;-68
2022/01/06 08:44:16;;;;;;;5.47;0.90;;;21.10;47.60;;;;;;4481604;32;20125;-67
2022/01/06 08:46:42;;;;;;;3.95;0.98;;;21.10;47.40;;;;;;4480627;32;20128;-68
2022/01/06 08:49:11;;;;;;;6.75;0.95;;;21.20;47.30;;;;;;4480529;32;20234;-67
2022/01/06 08:51:41;;;;;;;3.20;0.80;;;21.30;47.20;;;;;;4481615;32;20129;-67
2022/01/06 08:54:07;;;;;;;2.35;0.88;;;21.40;47.10;;;;;;4481352;32;20627;-67
2022/01/06 08:56:34;;;;;;;4.85;1.00;;;21.40;46.90;;;;;;4467657;32;20340;-67
2022/01/06 08:59:00;;;;;;;5.75;1.00;;;21.50;46.90;;;;;;4474632;32;20128;-68
2022/01/06 09:01:26;;;;;;;4.03;1.00;;;21.50;46.80;;;;;;4497017;32;20853;-68
2022/01/06 09:03:52;;;;;;;3.83;0.82;;;21.60;46.80;;;;;;4482696;32;20219;-67
2022/01/06 09:06:20;;;;;;;4.18;0.98;;;21.60;46.70;;;;;;4490186;32;20155;-68
2022/01/06 09:08:46;;;;;;;5.88;1.17;;;21.60;46.80;;;;;;4480063;32;20266;-68
2022/01/06 09:11:13;;;;;;;6.95;1.10;;;21.60;46.90;;;;;;4481263;32;20182;-68
2022/01/06 09:13:39;;;;;;;3.05;0.90;;;21.70;47.00;;;;;;4481453;32;20260;-67
2022/01/06 09:16:08;;;;;;;4.20;1.13;;;21.60;47.00;;;;;;4481350;32;20129;-67
2022/01/06 09:18:40;;;;;;;8.05;0.90;;;21.70;47.20;;;;;;4481751;32;20462;-67
2022/01/06 09:21:07;;;;;;;5.57;1.25;;;21.70;47.20;;;;;;4481347;32;20125;-66
2022/01/06 09:23:33;;;;;;;4.60;1.15;;;21.60;46.70;;;;;;4481463;32;20140;-66
2022/01/06 09:25:59;;;;;;;5.45;1.15;;;21.60;46.60;;;;;;4480985;32;20140;-66
2022/01/06 09:28:26;;;;;;;6.18;1.30;;;21.60;46.70;;;;;;4479431;32;20582;-67
2022/01/06 09:30:52;;;;;;;5.75;1.58;;;21.60;46.60;;;;;;4481356;32;20134;-67
2022/01/06 09:33:19;;;;;;;6.18;1.05;;;21.60;46.50;;;;;;4481328;31;20171;-70
2022/01/06 09:35:53;;;;;;;4.90;1.42;;;21.60;46.60;;;;;;4484899;31;20234;-70
2022/01/06 09:38:19;;;;;;;3.05;1.13;;;21.60;46.70;;;;;;4494213;31;20125;-67
2022/01/06 09:40:45;;;;;;;6.13;0.90;;;21.70;47.10;;;;;;4472038;32;20144;-66
2022/01/06 09:43:12;;;;;;;3.72;1.20;;;21.70;46.70;;;;;;4482895;32;20143;-66
2022/01/06 09:45:39;;;;;;;8.48;1.10;;;21.80;46.80;;;;;;4484272;32;20150;-67
2022/01/06 09:48:06;;;;;;;4.35;1.30;;;21.90;46.80;;;;;;4483054;32;20263;-66
2022/01/06 09:50:32;;;;;;;4.90;1.00;;;21.90;46.70;;;;;;4482576;32;20435;-68
2022/01/06 09:52:58;;;;;;;3.35;1.10;;;22.00;46.70;;;;;;4483389;32;20148;-67
2022/01/06 09:55:24;;;;;;;3.35;1.10;;;22.10;46.70;;;;;;4482424;32;20295;-67
2022/01/06 09:57:59;;;;;;;4.15;1.10;;;22.10;46.60;;;;;;4484252;32;20137;-67
2022/01/06 10:00:32;;;;;;;3.85;1.00;;;22.10;46.80;;;;;;4482604;32;20133;-67
2022/01/06 10:03:03;;;;;;;3.30;1.08;;;22.00;46.90;;;;;;4484087;32;20201;-67
2022/01/06 10:05:45;;;;;;;5.88;1.00;;;22.00;47.00;;;;;;4483913;32;20283;-69
2022/01/06 10:08:13;;;;;;;7.50;1.25;;;21.90;47.20;;;;;;4483473;31;20319;-68
2022/01/06 10:10:40;;;;;;;7.22;1.10;;;21.80;47.50;;;;;;4487449;31;20193;-68
2022/01/06 10:13:09;;;;;;;4.70;0.90;;;21.70;47.60;;;;;;4483193;31;20129;-67
2022/01/06 10:15:37;;;;;;;4.40;1.10;;;21.60;47.80;;;;;;4483525;32;20141;-67
2022/01/06 10:18:16;;;;;;;3.33;1.05;;;21.60;48.10;;;;;;4483858;32;20144;-66
2022/01/06 10:20:43;;;;;;;6.22;1.30;;;21.50;48.10;;;;;;4483628;32;20135;-66
2022/01/06 10:23:15;;;;;;;5.43;1.55;;;21.50;48.30;;;;;;4483919;32;20129;-66
2022/01/06 10:25:48;;;;;;;5.93;1.23;;;21.40;48.30;;;;;;4483334;32;20172;-66
2022/01/06 10:28:22;;;;;;;5.10;1.00;;;21.40;48.30;;;;;;4483417;32;20143;-66
2022/01/06 10:30:49;;;;;;;5.38;1.63;;;21.40;48.30;;;;;;4483589;32;20250;-65
2022/01/06 10:33:19;;;;;;;3.65;1.00;;;21.30;48.30;;;;;;4483267;32;20586;-66
2022/01/06 10:35:46;;;;;;;3.45;1.15;;;21.30;48.30;;;;;;4475030;31;20143;-68
2022/01/06 10:38:12;;;;;;;4.10;1.10;;;21.30;48.40;;;;;;4493550;31;20204;-68
2022/01/06 10:40:39;;;;;;;6.93;1.38;;;21.20;48.30;;;;;;4481406;31;20144;-67
2022/01/06 10:43:06;;;;;;;5.10;1.70;;;21.20;48.30;;;;;;4496073;31;20129;-65
2022/01/06 10:45:34;;;;;;;3.92;1.17;;;21.20;48.20;;;;;;4491275;31;20656;-67
2022/01/06 10:48:03;;;;;;;4.45;1.10;;;21.20;47.90;;;;;;4496464;31;20163;-68
2022/01/06 10:50:35;;;;;;;7.78;1.30;;;21.20;47.60;;;;;;4482635;31;20275;-67
2022/01/06 10:53:10;;;;;;;5.07;1.40;;;21.10;47.40;;;;;;4495659;31;20125;-68
2022/01/06 10:55:38;;;;;;;4.85;1.13;;;21.10;47.10;;;;;;4495108;31;20144;-67
2022/01/06 10:58:16;;;;;;;6.40;1.60;;;21.20;46.90;;;;;;4496473;31;20151;-68
2022/01/06 11:00:45;;;;;;;4.38;1.13;;;21.20;46.50;;;;;;4496718;31;20140;-69
2022/01/06 11:03:13;;;;;;;3.80;1.50;;;21.20;46.30;;;;;;4496951;31;20702;-67
2022/01/06 11:05:45;;;;;;;5.45;1.50;;;21.20;46.00;;;;;;4497318;31;20148;-67
2022/01/06 11:08:13;;;;;;;5.22;1.30;;;21.20;45.90;;;;;;4497216;31;20140;-67
2022/01/06 11:10:47;;;;;;;5.88;1.40;;;21.20;45.90;;;;;;4494579;31;20136;-67
2022/01/06 11:13:14;;;;;;;4.78;1.55;;;21.30;46.00;;;;;;4497778;31;20136;-68
2022/01/06 11:15:41;;;;;;;6.20;1.48;;;21.30;46.00;;;;;;4497434;31;20281;-66
2022/01/06 11:18:08;;;;;;;3.17;1.20;;;21.30;46.10;;;;;;4493438;31;20146;-66
2022/01/06 11:20:34;;;;;;;5.63;1.67;;;21.30;46.20;;;;;;4491537;31;20128;-65
2022/01/06 11:23:01;;;;;;;6.47;1.20;;;21.30;46.30;;;;;;4493811;31;20222;-65
2022/01/06 11:25:36;;;;;;;3.30;1.02;;;21.30;46.50;;;;;;4491838;31;20137;-66
2022/01/06 11:28:07;;;;;;;5.60;1.50;;;21.30;46.50;;;;;;4494065;31;20109;-66
2022/01/06 11:30:46;;;;;;;5.13;1.55;;;21.30;46.60;;;;;;4491536;31;20612;-66
2022/01/06 11:33:14;;;;;;;4.38;1.50;;;21.30;46.70;;;;;;4491995;31;20176;-67
2022/01/06 11:35:49;;;;;;;5.97;1.40;;;21.30;46.80;;;;;;4493205;31;20198;-67
2022/01/06 11:38:19;;;;;;;4.95;1.42;;;21.30;46.80;;;;;;4491688;31;20113;-66
2022/01/06 11:40:49;;;;;;;4.95;1.45;;;21.30;46.80;;;;;;4492972;31;20125;-66
2022/01/06 11:43:15;;;;;;;6.50;1.30;;;21.30;46.90;;;;;;4493004;31;20125;-66
2022/01/06 11:45:41;;;;;;;6.55;1.73;;;21.30;47.00;;;;;;4493011;31;20125;-65
2022/01/06 11:48:10;;;;;;;3.65;1.15;;;21.30;47.00;;;;;;4496916;31;20454;-65
2022/01/06 11:50:38;;;;;;;6.53;1.27;;;21.30;47.00;;;;;;4482580;31;20121;-65
2022/01/06 11:53:04;;;;;;;9.30;1.20;;;21.30;46.90;;;;;;4497524;31;20132;-66
2022/01/06 11:55:36;;;;;;;6.80;1.20;;;21.30;46.90;;;;;;4497241;31;20120;-66
2022/01/06 11:58:14;;;;;;;5.45;1.40;;;21.30;47.00;;;;;;4482360;31;20612;-66
2022/01/06 12:01:02;;;;;;;7.82;1.40;;;21.30;47.00;;;;;;4483696;31;20144;-65
2022/01/06 12:03:36;;;;;;;7.20;1.40;;;21.30;47.00;;;;;;4481609;31;20183;-66
2022/01/06 12:06:03;;;;;;;5.75;1.27;;;21.30;47.00;;;;;;4496367;31;20136;-65
2022/01/06 12:08:42;;;;;;;4.53;1.30;;;21.30;47.10;;;;;;4482637;31;20329;-66
2022/01/06 12:11:24;;;;;;;4.07;1.20;;;21.30;47.10;;;;;;4497051;31;20226;-66
2022/01/06 12:13:51;;;;;;;4.38;1.42;;;21.30;47.20;;;;;;4496657;31;20595;-65
2022/01/06 12:16:32;;;;;;;4.25;1.23;;;21.30;47.30;;;;;;4494622;31;20180;-66
2022/01/06 12:19:00;;;;;;;5.07;1.40;;;21.30;47.40;;;;;;4497227;31;20150;-66
2022/01/06 12:21:26;;;;;;;4.30;1.20;;;21.30;47.40;;;;;;4480627;31;20266;-67
2022/01/06 12:24:03;;;;;;;4.40;1.30;;;21.30;47.50;;;;;;4491564;31;20235;-68
2022/01/06 12:26:30;;;;;;;5.32;1.15;;;21.30;47.50;;;;;;4494196;31;20136;-66
2022/01/06 12:28:56;;;;;;;3.58;1.10;;;21.30;47.70;;;;;;4494362;31;20150;-66
2022/01/06 12:31:30;;;;;;;4.45;1.48;;;21.30;47.70;;;;;;4497423;31;20124;-65
2022/01/06 12:34:02;;;;;;;6.13;1.23;;;21.30;47.80;;;;;;4496972;31;20137;-67
2022/01/06 12:36:34;;;;;;;3.70;1.38;;;21.30;47.80;;;;;;4497682;31;20163;-66
2022/01/06 12:39:15;;;;;;;5.10;1.42;;;21.30;47.80;;;;;;4497448;31;20144;-65
2022/01/06 12:41:41;;;;;;;5.75;1.38;;;21.30;47.80;;;;;;4497392;31;20141;-65
2022/01/06 12:44:09;;;;;;;5.38;1.33;;;21.30;47.80;;;;;;4497874;32;20164;-65
2022/01/06 12:46:41;;;;;;;7.15;1.50;;;21.30;47.80;;;;;;4496284;32;20132;-66
2022/01/06 12:49:08;;;;;;;6.20;1.50;;;21.30;47.70;;;;;;4496802;32;20208;-66
2022/01/06 12:51:40;;;;;;;4.18;1.15;;;21.20;47.60;;;;;;4497431;32;20132;-65
2022/01/06 12:54:13;;;;;;;4.95;1.20;;;21.30;47.70;;;;;;4497446;32;20121;-65
2022/01/06 12:56:41;;;;;;;5.95;1.45;;;21.30;47.70;;;;;;4497452;32;20136;-65
2022/01/06 12:59:33;;;;;;;5.07;1.23;;;21.30;47.80;;;;;;4497112;32;20121;-65